Time;durP1;ratioP1;P1;durP2;ratioP2;P2;SDS_P1;SDS_P2;PMS_P1;PMS_P2;Temp;Humidity;BMP_temperature;BMP_pressure;BME280_temperature;BME280_humidity;BME280_pressure;Samples;Min_cycle;Max_cycle;Signal;HPM_P1;HPM_P2
2022/04/07 00:03:18;;;;;;;3.92;3.15;;;;;10.40;94838.00;;;;8347803;28;20259;-67
2022/04/07 00:07:21;;;;;;;4.40;2.80;;;;;10.50;94841.00;;;;8345162;28;20225;-67
2022/04/07 00:11:25;;;;;;;3.22;2.42;;;;;10.60;94831.00;;;;8349886;28;20240;-70
2022/04/07 00:15:29;;;;;;;4.60;2.78;;;;;10.70;94829.00;;;;8351474;28;20227;-67
2022/04/07 00:19:32;;;;;;;4.78;2.42;;;;;10.90;94831.00;;;;8350043;28;20741;-67
2022/04/07 00:23:35;;;;;;;1.90;1.80;;;;;11.00;94821.00;;;;8345838;28;20240;-66
2022/04/07 00:27:40;;;;;;;3.78;2.30;;;;;11.10;94813.00;;;;8339910;28;20263;-67
2022/04/07 00:31:43;;;;;;;2.97;2.40;;;;;11.20;94806.00;;;;8337907;28;20258;-68
2022/04/07 00:35:47;;;;;;;2.67;2.10;;;;;11.20;94814.00;;;;8336702;28;20323;-67
2022/04/07 00:39:51;;;;;;;3.60;2.80;;;;;11.20;94809.00;;;;8330137;28;20247;-67
2022/04/07 00:43:56;;;;;;;2.80;2.38;;;;;11.30;94803.00;;;;8344431;28;20262;-68
2022/04/07 00:47:59;;;;;;;2.53;2.30;;;;;11.30;94802.00;;;;8333440;28;20240;-68
2022/04/07 00:52:03;;;;;;;3.33;2.40;;;;;11.30;94801.00;;;;8341131;28;20229;-67
2022/04/07 00:56:07;;;;;;;3.22;2.83;;;;;11.30;94795.00;;;;8341666;28;20965;-68
2022/04/07 01:00:14;;;;;;;2.97;2.60;;;;;11.20;94795.00;;;;8334439;28;20681;-68
2022/04/07 01:04:18;;;;;;;2.60;2.40;;;;;11.10;94788.00;;;;8341994;28;20263;-69
2022/04/07 01:08:21;;;;;;;4.38;2.50;;;;;11.00;94793.00;;;;8335866;28;20230;-67
2022/04/07 01:12:24;;;;;;;3.92;3.03;;;;;11.00;94788.00;;;;8334442;28;20303;-69
2022/04/07 01:16:30;;;;;;;3.67;2.63;;;;;11.00;94782.00;;;;8342162;28;20235;-69
2022/04/07 01:20:33;;;;;;;3.72;2.42;;;;;11.00;94780.00;;;;8330531;28;20223;-68
2022/04/07 01:24:38;;;;;;;3.10;2.80;;;;;11.00;94780.00;;;;8337993;28;20311;-67
2022/04/07 01:28:48;;;;;;;3.85;2.70;;;;;11.00;94769.00;;;;8340380;28;20231;-69
2022/04/07 01:32:54;;;;;;;2.47;2.28;;;;;11.00;94769.00;;;;8332816;28;20322;-69
2022/04/07 01:36:58;;;;;;;3.75;2.50;;;;;10.90;94768.00;;;;8345870;28;21087;-68
2022/04/07 01:41:02;;;;;;;2.85;2.65;;;;;10.90;94756.00;;;;8332261;28;20278;-70
2022/04/07 01:45:08;;;;;;;3.20;2.55;;;;;10.90;94755.00;;;;8335955;28;20721;-69
2022/04/07 01:49:11;;;;;;;2.60;2.40;;;;;11.00;94753.00;;;;8337007;28;20235;-68
2022/04/07 01:53:15;;;;;;;2.33;2.13;;;;;11.00;94748.00;;;;8335887;28;20309;-68
2022/04/07 01:57:23;;;;;;;2.55;2.35;;;;;11.10;94747.00;;;;8327560;28;20670;-69
2022/04/07 02:01:27;;;;;;;2.17;2.03;;;;;11.10;94748.00;;;;8340200;28;20216;-68
2022/04/07 02:05:30;;;;;;;2.42;2.13;;;;;11.10;94742.00;;;;8331311;28;20259;-68
2022/04/07 02:09:33;;;;;;;2.15;1.98;;;;;11.10;94741.00;;;;8337382;28;20224;-66
2022/04/07 02:13:39;;;;;;;2.22;2.13;;;;;11.10;94739.00;;;;8349157;28;20310;-68
2022/04/07 02:17:42;;;;;;;1.92;1.83;;;;;11.20;94744.00;;;;8336820;28;20312;-69
2022/04/07 02:21:45;;;;;;;2.00;1.90;;;;;11.20;94752.00;;;;8341200;28;20628;-66
2022/04/07 02:25:49;;;;;;;2.63;1.60;;;;;11.20;94744.00;;;;8340280;28;20292;-67
2022/04/07 02:29:54;;;;;;;1.70;1.60;;;;;11.10;94735.00;;;;8340197;28;20260;-69
2022/04/07 02:33:57;;;;;;;1.80;1.70;;;;;11.10;94732.00;;;;8331807;28;20231;-69
2022/04/07 02:38:01;;;;;;;1.80;1.70;;;;;11.10;94731.00;;;;8336323;28;20341;-67
2022/04/07 02:42:05;;;;;;;1.52;1.42;;;;;11.10;94732.00;;;;8338043;28;20311;-67
2022/04/07 02:46:10;;;;;;;1.90;1.80;;;;;11.00;94730.00;;;;8336219;28;20240;-67
2022/04/07 02:50:16;;;;;;;1.40;1.40;;;;;10.90;94728.00;;;;8336578;28;20331;-67
2022/04/07 02:54:19;;;;;;;4.03;1.60;;;;;10.80;94739.00;;;;8338899;28;20331;-67
2022/04/07 02:58:23;;;;;;;1.90;1.80;;;;;10.70;94735.00;;;;8337226;28;20228;-67
2022/04/07 03:02:28;;;;;;;1.85;1.75;;;;;10.60;94733.00;;;;8400601;22;20223;-68
2022/04/07 03:06:31;;;;;;;1.90;1.83;;;;;10.40;94731.00;;;;8404125;28;20644;-68
2022/04/07 03:10:34;;;;;;;2.55;2.35;;;;;10.30;94730.00;;;;8408499;28;20211;-67
2022/04/07 03:14:38;;;;;;;2.08;1.98;;;;;10.30;94723.00;;;;8423656;28;20255;-70
2022/04/07 03:18:42;;;;;;;2.78;2.58;;;;;10.30;94724.00;;;;8403210;28;20216;-68
2022/04/07 03:22:45;;;;;;;2.15;2.05;;;;;10.20;94719.00;;;;8412191;28;20808;-68
2022/04/07 03:26:48;;;;;;;2.72;2.40;;;;;10.00;94722.00;;;;8416684;28;20312;-67
2022/04/07 03:30:52;;;;;;;2.45;2.30;;;;;9.90;94718.00;;;;8415934;28;20227;-67
2022/04/07 03:34:56;;;;;;;6.28;2.63;;;;;9.70;94714.00;;;;8422514;28;20228;-66
2022/04/07 03:38:59;;;;;;;2.60;2.40;;;;;9.70;94711.00;;;;8410151;28;20237;-68
2022/04/07 03:43:03;;;;;;;3.67;2.50;;;;;9.60;94712.00;;;;8418619;28;20259;-67
2022/04/07 03:47:07;;;;;;;2.10;2.00;;;;;9.40;94705.00;;;;8418029;28;20231;-68
2022/04/07 03:51:12;;;;;;;2.97;2.70;;;;;9.30;94703.00;;;;8414345;28;20306;-68
2022/04/07 03:55:15;;;;;;;3.08;2.05;;;;;9.30;94691.00;;;;8414893;28;21192;-67
2022/04/07 03:59:18;;;;;;;3.30;2.40;;;;;9.30;94692.00;;;;8423495;28;20632;-67
2022/04/07 04:03:21;;;;;;;4.37;2.13;;;;;9.10;94694.00;;;;8418557;28;20226;-68
2022/04/07 04:07:26;;;;;;;4.93;2.57;;;;;9.10;94703.00;;;;8412996;28;20231;-68
2022/04/07 04:11:29;;;;;;;2.50;2.33;;;;;9.10;94695.00;;;;8413753;28;20223;-68
2022/04/07 04:15:33;;;;;;;2.30;2.20;;;;;9.30;94700.00;;;;8411382;28;20237;-67
2022/04/07 04:19:36;;;;;;;2.07;1.97;;;;;9.40;94698.00;;;;8411489;28;20234;-68
2022/04/07 04:23:41;;;;;;;1.90;1.80;;;;;9.60;94690.00;;;;8408037;28;20231;-67
2022/04/07 04:27:44;;;;;;;3.20;2.90;;;;;9.70;94692.00;;;;8409937;28;20224;-68
2022/04/07 04:31:47;;;;;;;1.92;1.83;;;;;9.80;94690.00;;;;8407043;28;20227;-68
2022/04/07 04:35:51;;;;;;;1.90;1.80;;;;;9.90;94693.00;;;;8404006;28;20324;-66
2022/04/07 04:39:56;;;;;;;2.00;1.90;;;;;10.00;94696.00;;;;8406628;28;20729;-66
2022/04/07 04:44:00;;;;;;;2.10;2.00;;;;;10.10;94693.00;;;;8412889;28;20297;-68
2022/04/07 04:48:03;;;;;;;2.75;2.50;;;;;10.10;94689.00;;;;8410190;28;20318;-68
2022/04/07 04:52:07;;;;;;;3.20;2.90;;;;;10.10;94673.00;;;;8412561;28;20311;-65
2022/04/07 04:56:12;;;;;;;2.50;2.30;;;;;10.10;94680.00;;;;8411836;28;20246;-68
2022/04/07 05:00:15;;;;;;;2.40;2.20;;;;;10.20;94682.00;;;;8413598;28;20850;-66
2022/04/07 05:04:19;;;;;;;2.53;2.27;;;;;10.30;94677.00;;;;8404495;28;20231;-68
2022/04/07 05:08:22;;;;;;;2.80;2.17;;;;;10.30;94670.00;;;;8412340;28;20291;-67
2022/04/07 05:12:27;;;;;;;2.00;1.90;;;;;10.40;94678.00;;;;8404407;28;20227;-67
2022/04/07 05:16:31;;;;;;;4.40;2.00;;;;;10.50;94670.00;;;;8407842;28;20223;-66
2022/04/07 05:20:35;;;;;;;2.38;2.13;;;;;10.50;94664.00;;;;8410429;28;20312;-66
2022/04/07 05:24:38;;;;;;;2.22;2.08;;;;;10.50;94662.00;;;;8409384;28;20318;-68
2022/04/07 05:28:43;;;;;;;2.17;2.08;;;;;10.60;94656.00;;;;8412548;28;20228;-67
2022/04/07 05:32:47;;;;;;;2.00;1.90;;;;;10.60;94665.00;;;;8405722;28;20234;-67
2022/04/07 05:36:50;;;;;;;2.03;1.90;;;;;10.70;94669.00;;;;8409377;28;20615;-67
2022/04/07 05:40:53;;;;;;;2.15;2.05;;;;;10.70;94657.00;;;;8409260;28;20221;-67
2022/04/07 05:44:58;;;;;;;1.80;1.70;;;;;10.80;94659.00;;;;8410690;28;20314;-68
2022/04/07 05:49:01;;;;;;;2.13;1.75;;;;;10.80;94647.00;;;;8406612;28;20239;-66
2022/04/07 05:53:06;;;;;;;1.30;1.30;;;;;10.90;94647.00;;;;8411982;28;20224;-67
2022/04/07 05:57:09;;;;;;;1.50;1.50;;;;;11.00;94643.00;;;;8409483;28;20250;-67
2022/04/07 06:01:14;;;;;;;1.50;1.45;;;;;11.10;94630.00;;;;8410094;28;20312;-68
2022/04/07 06:05:18;;;;;;;1.40;1.40;;;;;11.20;94619.00;;;;8410827;28;20703;-65
2022/04/07 06:09:22;;;;;;;1.35;1.30;;;;;11.30;94625.00;;;;8404606;28;20230;-70
2022/04/07 06:13:25;;;;;;;1.10;1.10;;;;;11.30;94617.00;;;;8409290;28;20229;-67
2022/04/07 06:17:38;;;;;;;1.33;1.10;;;;;11.40;94616.00;;;;8403762;28;20614;-68
2022/04/07 06:21:43;;;;;;;1.20;1.20;;;;;11.40;94626.00;;;;8406843;28;20696;-65
2022/04/07 06:25:49;;;;;;;1.10;1.10;;;;;11.50;94631.00;;;;8402422;28;20249;-67
2022/04/07 06:29:56;;;;;;;1.00;1.00;;;;;11.60;94623.00;;;;8407879;28;20762;-69
2022/04/07 06:34:01;;;;;;;1.20;1.20;;;;;11.70;94610.00;;;;8408518;28;20234;-67
2022/04/07 06:38:10;;;;;;;1.13;1.13;;;;;11.60;94605.00;;;;8408363;28;20320;-68
2022/04/07 06:42:13;;;;;;;1.08;1.08;;;;;11.60;94608.00;;;;8407670;28;20235;-68
2022/04/07 06:46:16;;;;;;;1.00;1.00;;;;;11.70;94592.00;;;;8409431;28;20230;-69
2022/04/07 06:50:23;;;;;;;1.00;1.00;;;;;12.00;94578.00;;;;8408559;28;20697;-69
2022/04/07 06:54:27;;;;;;;1.42;1.40;;;;;12.10;94588.00;;;;8410985;28;20222;-69
2022/04/07 06:58:30;;;;;;;3.72;1.15;;;;;12.50;94571.00;;;;8412082;28;20619;-68
2022/04/07 07:02:34;;;;;;;1.48;1.38;;;;;12.80;94548.00;;;;8411359;28;20240;-70
2022/04/07 07:06:39;;;;;;;1.48;1.48;;;;;12.90;94565.00;;;;8414571;28;20615;-73
2022/04/07 07:10:44;;;;;;;1.30;1.30;;;;;12.90;94568.00;;;;8410749;28;20218;-65
2022/04/07 07:14:47;;;;;;;1.58;1.48;;;;;12.90;94567.00;;;;8415588;28;20269;-66
2022/04/07 07:18:51;;;;;;;1.30;1.20;;;;;13.10;94574.00;;;;8410439;28;20230;-65
2022/04/07 07:22:55;;;;;;;2.03;1.48;;;;;13.20;94568.00;;;;8418370;28;20680;-65
2022/04/07 07:26:59;;;;;;;1.00;1.00;;;;;13.10;94574.00;;;;8419296;28;20856;-67
2022/04/07 07:31:03;;;;;;;1.20;1.10;;;;;13.00;94566.00;;;;8413866;28;20706;-65
2022/04/07 07:35:08;;;;;;;1.17;1.17;;;;;13.10;94544.00;;;;8411513;28;20713;-65
2022/04/07 07:39:13;;;;;;;1.10;1.10;;;;;13.20;94540.00;;;;8416601;28;20238;-64
2022/04/07 07:43:16;;;;;;;1.27;1.20;;;;;13.70;94543.00;;;;8414909;28;20247;-65
2022/04/07 07:47:20;;;;;;;1.75;0.93;;;;;14.20;94524.00;;;;8410479;28;20264;-65
2022/04/07 07:51:23;;;;;;;0.98;0.98;;;;;13.80;94503.00;;;;8408396;28;20687;-65
2022/04/07 07:55:28;;;;;;;1.00;1.00;;;;;13.80;94524.00;;;;8410969;28;20754;-64
2022/04/07 07:59:31;;;;;;;1.08;0.90;;;;;14.40;94528.00;;;;8416040;28;20250;-65
2022/04/07 08:03:34;;;;;;;1.20;1.20;;;;;15.20;94507.00;;;;8414711;28;20724;-63
2022/04/07 08:07:40;;;;;;;1.70;1.10;;;;;15.40;94500.00;;;;8409223;28;20343;-65
2022/04/07 08:11:44;;;;;;;1.00;1.00;;;;;15.00;94490.00;;;;8416011;28;20251;-63
2022/04/07 08:15:48;;;;;;;2.97;1.00;;;;;15.20;94497.00;;;;8413669;28;20297;-65
2022/04/07 08:19:51;;;;;;;1.30;1.20;;;;;15.40;94502.00;;;;8413372;28;20235;-64
2022/04/07 08:23:54;;;;;;;1.55;1.15;;;;;15.50;94491.00;;;;8410518;28;20588;-66
2022/04/07 08:27:59;;;;;;;1.20;1.10;;;;;15.50;94491.00;;;;8409575;28;20239;-66
2022/04/07 08:32:02;;;;;;;1.00;1.00;;;;;15.60;94496.00;;;;8413405;28;20223;-66
2022/04/07 08:36:06;;;;;;;1.20;1.20;;;;;15.50;94499.00;;;;8416039;28;20222;-63
2022/04/07 08:40:10;;;;;;;1.30;1.20;;;;;15.50;94501.00;;;;8415641;28;20222;-64
2022/04/07 08:44:16;;;;;;;1.10;1.10;;;;;15.90;94478.00;;;;8419025;28;20284;-64
2022/04/07 08:48:20;;;;;;;1.20;1.20;;;;;15.90;94466.00;;;;8414562;28;20702;-64
2022/04/07 08:52:24;;;;;;;1.10;1.10;;;;;15.60;94507.00;;;;8416122;28;20234;-66
2022/04/07 08:56:27;;;;;;;1.15;1.15;;;;;15.80;94489.00;;;;8413716;28;20231;-63
2022/04/07 09:00:32;;;;;;;1.00;1.00;;;;;16.10;94483.00;;;;8415234;28;20223;-63
2022/04/07 09:04:38;;;;;;;1.20;1.20;;;;;16.40;94466.00;;;;8414276;28;20342;-65
2022/04/07 09:08:42;;;;;;;1.00;1.00;;;;;16.70;94456.00;;;;8405254;28;20759;-64
2022/04/07 09:12:45;;;;;;;1.38;1.10;;;;;16.30;94455.00;;;;8414155;28;20306;-64
2022/04/07 09:16:54;;;;;;;1.10;1.10;;;;;15.80;94471.00;;;;8416074;28;20234;-65
2022/04/07 09:20:57;;;;;;;1.00;1.00;;;;;16.00;94458.00;;;;8413761;28;20231;-65
2022/04/07 09:25:06;;;;;;;1.00;1.00;;;;;16.30;94442.00;;;;8409684;28;21342;-66
2022/04/07 09:29:10;;;;;;;0.90;0.90;;;;;16.00;94444.00;;;;8413635;28;20231;-65
2022/04/07 09:33:22;;;;;;;0.82;0.82;;;;;15.60;94424.00;;;;8398083;28;20326;-65
2022/04/07 09:37:27;;;;;;;0.90;0.90;;;;;15.30;94434.00;;;;8412891;28;20891;-65
2022/04/07 09:41:31;;;;;;;0.73;0.73;;;;;15.10;94427.00;;;;8413234;28;20250;-65
2022/04/07 09:45:45;;;;;;;1.10;1.00;;;;;15.20;94420.00;;;;8411305;28;20240;-66
2022/04/07 09:50:21;;;;;;;0.90;0.90;;;;;15.30;94402.00;;;;8409987;28;20271;-64
2022/04/07 09:54:25;;;;;;;0.80;0.80;;;;;15.30;94383.00;;;;8400336;28;20641;-64
2022/04/07 09:58:29;;;;;;;1.00;1.00;;;;;15.30;94355.00;;;;8403992;28;20229;-65
2022/04/07 10:02:34;;;;;;;0.95;0.93;;;;;15.70;94363.00;;;;8413094;28;21040;-65
2022/04/07 10:06:40;;;;;;;1.00;1.00;;;;;15.80;94343.00;;;;8412658;28;20253;-64
2022/04/07 10:10:43;;;;;;;0.98;0.98;;;;;15.90;94337.00;;;;8408120;28;20330;-64
2022/04/07 10:14:48;;;;;;;1.17;1.08;;;;;16.10;94344.00;;;;8411697;28;20222;-66
2022/04/07 10:18:54;;;;;;;0.90;0.90;;;;;16.10;94347.00;;;;8411174;28;20686;-64
2022/04/07 10:23:09;;;;;;;1.08;1.08;;;;;16.00;94331.00;;;;8402199;28;20892;-65
2022/04/07 10:27:23;;;;;;;1.10;1.00;;;;;16.10;94321.00;;;;8411784;28;20238;-64
2022/04/07 10:31:27;;;;;;;1.85;1.00;;;;;16.10;94307.00;;;;8410264;28;20242;-65
2022/04/07 10:35:36;;;;;;;1.10;1.10;;;;;16.00;94285.00;;;;8411607;28;20319;-64
2022/04/07 10:39:42;;;;;;;1.00;1.00;;;;;16.00;94267.00;;;;8412261;28;20836;-63
2022/04/07 10:44:11;;;;;;;0.85;0.82;;;;;16.00;94289.00;;;;8419150;28;20237;-63
2022/04/07 10:48:25;;;;;;;1.10;1.10;;;;;16.00;94263.00;;;;8412207;28;20298;-63
2022/04/07 10:52:28;;;;;;;1.55;0.80;;;;;16.00;94272.00;;;;8412340;28;20242;-64
2022/04/07 10:56:35;;;;;;;1.17;1.05;;;;;15.90;94265.00;;;;8415921;28;20940;-64
2022/04/07 11:00:39;;;;;;;1.20;1.20;;;;;15.90;94266.00;;;;8414899;28;20727;-65
2022/04/07 11:05:02;;;;;;;1.08;1.02;;;;;15.70;94248.00;;;;8410768;28;20237;-65
2022/04/07 11:09:17;;;;;;;0.90;0.90;;;;;15.60;94249.00;;;;8414106;28;20605;-64
2022/04/07 11:13:41;;;;;;;0.90;0.90;;;;;15.70;94235.00;;;;8415782;28;20318;-65
2022/04/07 11:17:52;;;;;;;0.90;0.90;;;;;15.80;94220.00;;;;8410787;28;20580;-64
2022/04/07 11:22:09;;;;;;;1.17;1.17;;;;;15.90;94212.00;;;;8413532;28;20241;-64
2022/04/07 11:26:13;;;;;;;0.90;0.90;;;;;15.70;94206.00;;;;8410357;28;20223;-63
2022/04/07 11:30:18;;;;;;;0.90;0.90;;;;;15.70;94195.00;;;;8416370;28;20231;-64
2022/04/07 11:34:58;;;;;;;1.08;1.00;;;;;15.90;94186.00;;;;8418787;28;20306;-64
2022/04/07 11:39:02;;;;;;;2.00;1.20;;;;;15.90;94167.00;;;;8412332;28;20250;-64
2022/04/07 11:43:05;;;;;;;0.80;0.80;;;;;15.80;94190.00;;;;8415465;28;20792;-63
2022/04/07 11:47:26;;;;;;;0.90;0.90;;;;;15.90;94185.00;;;;8403775;28;20234;-65
2022/04/07 11:51:30;;;;;;;1.08;1.00;;;;;15.90;94182.00;;;;8412857;28;20316;-65
2022/04/07 11:55:33;;;;;;;0.95;0.90;;;;;16.00;94148.00;;;;8416543;28;20219;-64
2022/04/07 11:59:36;;;;;;;2.60;1.15;;;;;15.90;94114.00;;;;8412089;28;20219;-64
2022/04/07 12:03:42;;;;;;;0.90;0.90;;;;;16.00;94158.00;;;;8412271;28;20737;-66
2022/04/07 12:07:45;;;;;;;1.00;1.00;;;;;16.10;94136.00;;;;8410475;28;20219;-64
2022/04/07 12:11:48;;;;;;;1.08;1.05;;;;;16.00;94131.00;;;;8412809;28;20862;-65
2022/04/07 12:15:52;;;;;;;0.88;0.88;;;;;16.10;94129.00;;;;8407394;28;20223;-65
2022/04/07 12:19:57;;;;;;;1.08;1.02;;;;;16.00;94124.00;;;;8410236;28;20238;-66
2022/04/07 12:24:09;;;;;;;1.75;0.80;;;;;15.90;94137.00;;;;8406364;28;20406;-65
2022/04/07 12:28:15;;;;;;;1.40;0.80;;;;;15.80;94130.00;;;;8397342;28;20228;-64
2022/04/07 12:32:18;;;;;;;1.27;1.00;;;;;15.60;94138.00;;;;8408572;28;20276;-65
2022/04/07 12:36:38;;;;;;;0.75;0.75;;;;;15.50;94118.00;;;;8413638;28;20219;-66
2022/04/07 12:40:41;;;;;;;0.90;0.90;;;;;15.50;94130.00;;;;8413267;28;20658;-65
2022/04/07 12:44:48;;;;;;;0.70;0.70;;;;;15.60;94097.00;;;;8410739;28;20226;-67
2022/04/07 12:49:03;;;;;;;0.90;0.90;;;;;15.70;94086.00;;;;8409784;28;20223;-63
2022/04/07 12:53:27;;;;;;;10.68;2.65;;;;;15.60;94082.00;;;;8409103;28;20302;-63
2022/04/07 12:57:32;;;;;;;1.55;1.45;;;;;15.60;94098.00;;;;8408096;28;20219;-66
2022/04/07 13:01:56;;;;;;;1.58;0.90;;;;;15.60;94093.00;;;;8410461;28;20234;-63
2022/04/07 13:06:02;;;;;;;1.67;0.90;;;;;15.70;94061.00;;;;8414327;28;20230;-64
2022/04/07 13:10:09;;;;;;;1.00;1.00;;;;;15.70;94076.00;;;;8406474;28;20232;-64
2022/04/07 13:14:13;;;;;;;1.10;1.10;;;;;15.70;94044.00;;;;8409752;28;20230;-65
2022/04/07 13:18:17;;;;;;;1.45;0.90;;;;;15.70;94080.00;;;;8410704;28;20314;-64
2022/04/07 13:22:21;;;;;;;0.90;0.90;;;;;15.70;94079.00;;;;8408300;28;20233;-64
2022/04/07 13:26:27;;;;;;;1.13;1.13;;;;;15.70;94076.00;;;;8413540;28;20723;-64
2022/04/07 13:30:30;;;;;;;0.85;0.85;;;;;16.00;94044.00;;;;8406884;28;20595;-64
2022/04/07 13:34:34;;;;;;;0.90;0.90;;;;;16.00;94047.00;;;;8401412;28;20224;-64
2022/04/07 13:38:37;;;;;;;0.95;0.80;;;;;16.00;94040.00;;;;8405386;28;20271;-65
2022/04/07 13:42:42;;;;;;;0.80;0.80;;;;;15.90;94025.00;;;;8407607;28;20321;-63
2022/04/07 13:46:45;;;;;;;0.90;0.90;;;;;15.90;94040.00;;;;8408638;28;20241;-64
2022/04/07 13:50:49;;;;;;;2.08;0.60;;;;;15.80;94022.00;;;;8407347;28;20234;-64
2022/04/07 13:54:52;;;;;;;1.05;1.00;;;;;15.70;94022.00;;;;8408213;28;20265;-62
2022/04/07 13:58:57;;;;;;;0.80;0.80;;;;;15.70;94003.00;;;;8413059;28;20330;-63
2022/04/07 14:03:00;;;;;;;0.80;0.80;;;;;15.80;94002.00;;;;8402857;28;20231;-64
2022/04/07 14:07:07;;;;;;;0.80;0.80;;;;;15.70;94016.00;;;;8403580;28;20273;-63
2022/04/07 14:11:10;;;;;;;7.90;0.90;;;;;15.60;94009.00;;;;8406759;28;20966;-62
2022/04/07 14:15:15;;;;;;;4.15;3.78;;;;;15.50;94006.00;;;;8408517;28;20227;-63
2022/04/07 14:19:22;;;;;;;1.50;0.75;;;;;15.50;94001.00;;;;8404646;28;20699;-62
2022/04/07 14:23:25;;;;;;;1.75;0.77;;;;;15.60;93995.00;;;;8407260;28;20329;-63
2022/04/07 14:27:29;;;;;;;0.95;0.90;;;;;15.60;93973.00;;;;8402933;28;20307;-63
2022/04/07 14:31:36;;;;;;;0.93;0.68;;;;;15.70;93995.00;;;;8404747;28;20227;-63
2022/04/07 14:35:41;;;;;;;0.80;0.80;;;;;15.70;93996.00;;;;8399200;28;20506;-63
2022/04/07 14:39:46;;;;;;;3.53;0.73;;;;;15.80;93968.00;;;;8404035;28;20227;-63
2022/04/07 14:43:50;;;;;;;2.92;0.80;;;;;15.90;94001.00;;;;8407868;28;20806;-64
2022/04/07 14:47:58;;;;;;;0.95;0.95;;;;;15.90;94001.00;;;;8406418;28;20227;-64
2022/04/07 14:52:02;;;;;;;0.73;0.73;;;;;15.80;93953.00;;;;8405824;28;20673;-62
2022/04/07 14:56:06;;;;;;;0.70;0.70;;;;;15.70;93970.00;;;;8408868;28;20310;-63
2022/04/07 15:00:11;;;;;;;0.80;0.80;;;;;15.70;93957.00;;;;8407076;28;20572;-63
2022/04/07 15:04:16;;;;;;;0.88;0.88;;;;;15.60;93946.00;;;;8408346;28;20241;-64
2022/04/07 15:08:19;;;;;;;1.65;0.80;;;;;15.60;93956.00;;;;8404229;28;20227;-63
2022/04/07 15:12:23;;;;;;;0.80;0.80;;;;;15.50;93950.00;;;;8404024;28;20288;-63
2022/04/07 15:16:26;;;;;;;0.70;0.70;;;;;15.40;93936.00;;;;8402789;28;20231;-63
2022/04/07 15:20:31;;;;;;;55.28;27.38;;;;;15.30;93953.00;;;;8405966;28;20842;-63
2022/04/07 15:24:34;;;;;;;138.60;66.97;;;;;15.30;93955.00;;;;8409230;28;20223;-62
2022/04/07 15:28:37;;;;;;;51.33;27.77;;;;;15.20;93965.00;;;;8413588;28;20224;-63
2022/04/07 15:32:41;;;;;;;17.10;12.50;;;;;15.20;93967.00;;;;8413414;28;20231;-64
2022/04/07 15:36:46;;;;;;;2.45;2.30;;;;;15.20;93939.00;;;;8413359;28;20322;-62
2022/04/07 15:40:49;;;;;;;1.88;1.77;;;;;15.20;93936.00;;;;8411075;28;20237;-62
2022/04/07 15:44:52;;;;;;;1.55;1.33;;;;;15.20;93949.00;;;;8414328;28;20219;-63
2022/04/07 15:48:55;;;;;;;1.63;1.52;;;;;15.20;93956.00;;;;8417402;28;20334;-63
2022/04/07 15:53:00;;;;;;;6.00;5.43;;;;;15.20;93932.00;;;;8417307;28;20227;-64
2022/04/07 15:57:03;;;;;;;9.15;5.20;;;;;15.10;93915.00;;;;8413724;28;20234;-64
2022/04/07 16:01:07;;;;;;;1.65;1.65;;;;;15.10;93931.00;;;;8408159;28;20715;-64
2022/04/07 16:05:10;;;;;;;1.10;1.10;;;;;15.10;93930.00;;;;8415107;28;20239;-64
2022/04/07 16:09:15;;;;;;;0.98;0.98;;;;;15.10;93935.00;;;;8415240;28;20238;-64
2022/04/07 16:13:19;;;;;;;1.15;1.15;;;;;15.10;93920.00;;;;8415255;28;20226;-64
2022/04/07 16:17:22;;;;;;;3.35;1.00;;;;;15.10;93940.00;;;;8415213;28;20231;-65
2022/04/07 16:21:25;;;;;;;8.80;3.22;;;;;15.10;93915.00;;;;8411903;28;20711;-65
2022/04/07 16:25:31;;;;;;;2.72;2.53;;;;;15.10;93905.00;;;;8407351;28;20231;-64
2022/04/07 16:29:34;;;;;;;2.10;1.98;;;;;15.00;93900.00;;;;8414329;28;20238;-63
2022/04/07 16:33:37;;;;;;;1.45;1.40;;;;;15.00;93902.00;;;;8412172;28;20216;-64
2022/04/07 16:37:41;;;;;;;1.60;1.50;;;;;15.00;93896.00;;;;8415023;28;20233;-64
2022/04/07 16:41:47;;;;;;;1.83;0.80;;;;;15.10;93862.00;;;;8415110;28;20818;-63
2022/04/07 16:45:51;;;;;;;0.80;0.80;;;;;15.10;93878.00;;;;8414835;28;20273;-64
2022/04/07 16:49:55;;;;;;;0.80;0.80;;;;;15.10;93895.00;;;;8411050;28;20330;-63
2022/04/07 16:53:58;;;;;;;0.90;0.90;;;;;15.10;93887.00;;;;8412546;28;20229;-63
2022/04/07 16:58:03;;;;;;;0.70;0.70;;;;;15.10;93876.00;;;;8416187;28;20235;-63
2022/04/07 17:02:06;;;;;;;0.80;0.80;;;;;15.00;93907.00;;;;8414975;28;20285;-63
2022/04/07 17:06:09;;;;;;;0.80;0.80;;;;;14.80;93911.00;;;;8409258;28;20314;-62
2022/04/07 17:10:13;;;;;;;0.90;0.90;;;;;14.30;93908.00;;;;8414264;28;20659;-62
2022/04/07 17:14:17;;;;;;;0.80;0.80;;;;;14.20;93921.00;;;;8413801;28;20230;-63
2022/04/07 17:18:20;;;;;;;0.80;0.80;;;;;14.20;93923.00;;;;8415126;28;20226;-62
2022/04/07 17:22:23;;;;;;;3.80;0.90;;;;;14.10;93900.00;;;;8413368;28;20722;-64
2022/04/07 17:26:27;;;;;;;0.82;0.82;;;;;13.80;93912.00;;;;8406520;28;20219;-61
2022/04/07 17:30:31;;;;;;;3.20;1.10;;;;;13.40;93935.00;;;;8415000;28;20272;-62
2022/04/07 17:34:36;;;;;;;2.40;0.90;;;;;12.90;93947.00;;;;8413297;28;20219;-61
2022/04/07 17:38:39;;;;;;;0.70;0.70;;;;;12.90;93949.00;;;;8409357;28;20361;-63
2022/04/07 17:42:43;;;;;;;0.80;0.80;;;;;13.00;93967.00;;;;8412241;28;20607;-64
2022/04/07 17:46:47;;;;;;;1.27;0.73;;;;;13.10;93966.00;;;;8404790;28;20309;-63
2022/04/07 17:50:51;;;;;;;4.10;1.20;;;;;12.70;93996.00;;;;8402981;28;20231;-63
2022/04/07 17:54:54;;;;;;;0.98;0.90;;;;;12.20;94002.00;;;;8408752;28;20297;-64
2022/04/07 17:58:57;;;;;;;7.65;1.00;;;;;11.80;94039.00;;;;8412444;28;20897;-64
2022/04/07 18:03:02;;;;;;;1.20;1.10;;;;;11.60;94034.00;;;;8408691;28;20240;-65
2022/04/07 18:07:06;;;;;;;12.02;6.18;;;;;11.40;94077.00;;;;8412276;28;20886;-65
2022/04/07 18:11:09;;;;;;;1.15;1.15;;;;;11.20;94065.00;;;;8404624;28;20229;-66
2022/04/07 18:15:12;;;;;;;8.23;6.00;;;;;11.20;94109.00;;;;8409065;28;20867;-65
2022/04/07 18:19:17;;;;;;;8.38;6.22;;;;;11.10;94130.00;;;;8406183;28;20669;-66
2022/04/07 18:23:20;;;;;;;4.85;4.43;;;;;11.00;94094.00;;;;8407891;28;20259;-66
2022/04/07 18:27:25;;;;;;;50.55;29.52;;;;;10.90;94115.00;;;;8407673;28;20216;-68
2022/04/07 18:31:28;;;;;;;6.65;4.57;;;;;10.80;94099.00;;;;8409715;28;21773;-67
2022/04/07 18:35:33;;;;;;;2.22;2.10;;;;;10.80;94095.00;;;;8407623;28;20231;-66
2022/04/07 18:39:38;;;;;;;2.60;2.42;;;;;10.80;94102.00;;;;8401556;28;20631;-67
2022/04/07 18:43:43;;;;;;;18.02;13.38;;;;;10.70;94116.00;;;;8406602;28;20255;-69
2022/04/07 18:47:48;;;;;;;5.10;4.07;;;;;10.60;94135.00;;;;8406187;28;20229;-69
2022/04/07 18:51:52;;;;;;;11.70;7.70;;;;;10.60;94139.00;;;;8409159;28;20326;-67
2022/04/07 18:55:56;;;;;;;22.02;17.67;;;;;10.50;94143.00;;;;8400986;28;20241;-65
2022/04/07 18:59:59;;;;;;;10.73;8.57;;;;;10.40;94144.00;;;;8409945;28;20777;-65
2022/04/07 19:04:02;;;;;;;92.38;41.22;;;;;10.40;94150.00;;;;8413659;28;21052;-64
2022/04/07 19:08:08;;;;;;;158.77;73.60;;;;;10.30;94135.00;;;;8415369;28;20563;-64
2022/04/07 19:12:12;;;;;;;27.52;17.17;;;;;10.30;94136.00;;;;8405640;28;20216;-64
2022/04/07 19:16:15;;;;;;;37.53;18.17;;;;;10.30;94160.00;;;;8410588;28;20698;-62
2022/04/07 19:20:19;;;;;;;28.65;13.75;;;;;10.30;94177.00;;;;8402804;28;20662;-63
2022/04/07 19:24:24;;;;;;;27.73;11.80;;;;;10.30;94181.00;;;;8411066;28;20232;-64
2022/04/07 19:28:27;;;;;;;50.05;21.33;;;;;10.20;94183.00;;;;8414882;28;20223;-64
2022/04/07 19:32:30;;;;;;;71.93;26.25;;;;;10.10;94180.00;;;;8412828;28;20223;-64
2022/04/07 19:36:34;;;;;;;20.90;8.80;;;;;10.00;94187.00;;;;8407570;28;20302;-64
2022/04/07 19:40:38;;;;;;;38.25;11.70;;;;;9.90;94204.00;;;;8414544;28;20956;-65
2022/04/07 19:44:42;;;;;;;18.83;7.70;;;;;9.80;94219.00;;;;8412924;28;20253;-66
2022/04/07 19:48:51;;;;;;;33.20;12.35;;;;;9.70;94207.00;;;;8416137;28;20235;-67
2022/04/07 19:52:56;;;;;;;90.57;28.58;;;;;9.60;94222.00;;;;8413679;28;20828;-67
2022/04/07 19:57:01;;;;;;;10.13;3.20;;;;;9.50;94216.00;;;;8406751;28;21013;-66
2022/04/07 20:01:06;;;;;;;3.55;1.73;;;;;9.40;94218.00;;;;8414850;28;20231;-65
2022/04/07 20:05:10;;;;;;;3.13;1.90;;;;;9.30;94227.00;;;;8413296;28;20326;-66
2022/04/07 20:09:13;;;;;;;1.90;1.73;;;;;9.30;94241.00;;;;8411912;28;20966;-66
2022/04/07 20:13:17;;;;;;;5.37;1.53;;;;;9.10;94250.00;;;;8412785;28;20223;-64
2022/04/07 20:17:22;;;;;;;1.60;1.27;;;;;9.10;94253.00;;;;8406325;28;20219;-64
2022/04/07 20:21:26;;;;;;;2.67;2.47;;;;;9.00;94238.00;;;;8410947;28;20225;-64
2022/04/07 20:25:29;;;;;;;7.37;1.40;;;;;9.00;94249.00;;;;8405974;28;20258;-64